createdAt,value
2022-12-03T00:01:40.014Z,21.07
2022-12-03T00:04:41.672Z,24.93
2022-12-03T00:07:43.329Z,21.80
2022-12-03T00:10:45.135Z,21.20
2022-12-03T00:13:46.955Z,23.00
2022-12-03T00:16:48.598Z,20.87
2022-12-03T00:19:50.282Z,20.97
2022-12-03T00:22:52.899Z,22.70
2022-12-03T00:25:54.526Z,23.03
2022-12-03T00:28:57.573Z,18.83
2022-12-03T00:31:59.220Z,23.73
2022-12-03T00:35:01.032Z,20.40
2022-12-03T00:38:02.727Z,21.03
2022-12-03T00:41:04.475Z,22.67
2022-12-03T00:44:08.968Z,25.60
2022-12-03T00:47:10.762Z,27.97
2022-12-03T00:50:12.723Z,26.07
2022-12-03T00:53:14.447Z,25.07
2022-12-03T00:56:16.245Z,27.47
2022-12-03T00:59:18.019Z,28.30
2022-12-03T01:02:19.874Z,27.43
2022-12-03T01:05:21.670Z,28.87
2022-12-03T01:08:23.401Z,23.63
2022-12-03T01:11:41.361Z,25.00
2022-12-03T01:14:43.149Z,28.63
2022-12-03T01:17:44.886Z,27.80
2022-12-03T01:20:46.641Z,26.53
2022-12-03T01:23:48.328Z,26.13
2022-12-03T01:26:50.112Z,29.70
2022-12-03T01:29:51.846Z,26.07
2022-12-03T01:32:53.479Z,28.20
2022-12-03T01:35:55.168Z,27.37
2022-12-03T01:38:56.900Z,27.63
2022-12-03T01:41:58.861Z,29.57
2022-12-03T01:45:03.068Z,28.10
2022-12-03T01:48:04.903Z,26.73
2022-12-03T01:51:07.209Z,27.63
2022-12-03T01:54:16.568Z,27.97
2022-12-03T01:57:29.763Z,27.23
2022-12-03T02:00:31.708Z,30.87
2022-12-03T02:03:33.382Z,28.40
2022-12-03T02:06:35.137Z,26.37
2022-12-03T02:09:36.752Z,29.50
2022-12-03T02:12:43.783Z,31.87
2022-12-03T02:15:48.644Z,29.00
2022-12-03T02:18:50.557Z,27.03
2022-12-03T02:22:22.024Z,28.83
2022-12-03T02:25:26.446Z,25.13
2022-12-03T02:28:28.343Z,27.10
2022-12-03T02:31:30.116Z,26.50
2022-12-03T02:34:37.848Z,25.90
2022-12-03T02:37:39.655Z,29.60
2022-12-03T02:40:43.239Z,29.57
2022-12-03T02:43:44.903Z,29.50
2022-12-03T02:46:46.685Z,27.63
2022-12-03T02:49:49.295Z,27.73
2022-12-03T02:52:53.101Z,26.47
2022-12-03T02:55:56.582Z,25.03
2022-12-03T02:59:03.010Z,28.40
2022-12-03T03:02:04.723Z,25.57
2022-12-03T03:05:08.194Z,21.27
2022-12-03T03:08:12.694Z,22.67
2022-12-03T03:11:14.446Z,21.90
2022-12-03T03:14:16.196Z,24.33
2022-12-03T03:17:17.907Z,21.60
2022-12-03T03:20:19.784Z,20.60
2022-12-03T03:23:23.285Z,19.90
2022-12-03T03:26:25.162Z,22.47
2022-12-03T03:29:27.124Z,17.67
2022-12-03T03:32:29.604Z,21.90
2022-12-03T03:35:31.433Z,19.83
2022-12-03T03:38:34.114Z,16.73
2022-12-03T03:41:36.452Z,18.70
2022-12-03T03:44:38.308Z,18.50
2022-12-03T03:47:40.820Z,15.53
2022-12-03T03:50:44.393Z,19.30
2022-12-03T03:53:48.178Z,13.43
2022-12-03T03:56:50.008Z,18.53
2022-12-03T03:59:51.817Z,15.83
2022-12-03T04:02:54.350Z,18.70
2022-12-03T04:05:56.120Z,15.77
2022-12-03T04:08:57.871Z,14.50
2022-12-03T04:12:18.140Z,17.00
2022-12-03T04:15:19.823Z,16.13
2022-12-03T04:18:40.319Z,14.10
2022-12-03T04:22:00.721Z,16.47
2022-12-03T04:25:21.192Z,17.00
2022-12-03T04:28:41.603Z,17.33
2022-12-03T04:32:01.989Z,16.27
2022-12-03T04:35:22.454Z,15.17
2022-12-03T04:38:24.323Z,14.93
2022-12-03T04:41:26.071Z,16.27
2022-12-03T04:44:33.709Z,18.60
2022-12-03T04:47:39.753Z,17.50
2022-12-03T04:50:44.316Z,18.33
2022-12-03T04:53:46.441Z,16.10
2022-12-03T04:56:48.355Z,19.43
2022-12-03T04:59:50.055Z,17.90
2022-12-03T05:02:51.919Z,16.37
2022-12-03T05:05:53.599Z,16.43
2022-12-03T05:08:55.304Z,17.13
2022-12-03T05:11:57.068Z,15.00
2022-12-03T05:14:58.830Z,18.50
2022-12-03T05:18:00.514Z,16.33
2022-12-03T05:21:05.091Z,16.73
2022-12-03T05:24:06.965Z,16.60
2022-12-03T05:27:08.691Z,17.70
2022-12-03T05:30:10.885Z,16.83
2022-12-03T05:33:12.680Z,15.53
2022-12-03T05:36:14.342Z,15.03
2022-12-03T05:39:16.061Z,18.80
2022-12-03T05:42:36.260Z,16.13
2022-12-03T05:45:40.548Z,14.27
2022-12-03T05:48:42.335Z,17.03
2022-12-03T05:51:44.015Z,15.23
2022-12-03T05:54:45.664Z,15.50
2022-12-03T05:57:50.471Z,17.10
2022-12-03T06:00:52.124Z,14.00
2022-12-03T06:03:53.960Z,16.63
2022-12-03T06:06:57.656Z,16.77
2022-12-03T06:09:59.396Z,13.80
2022-12-03T06:13:10.958Z,16.30
2022-12-03T06:16:12.840Z,15.77
2022-12-03T06:19:14.506Z,16.00
2022-12-03T06:22:16.201Z,14.57
2022-12-03T06:25:18.123Z,15.63
2022-12-03T06:28:19.880Z,12.90
2022-12-03T06:31:23.126Z,13.60
2022-12-03T06:34:25.003Z,13.87
2022-12-03T06:37:26.682Z,16.10
2022-12-03T06:40:28.339Z,13.77
2022-12-03T06:43:32.634Z,13.17
2022-12-03T06:46:34.454Z,15.33
2022-12-03T06:49:36.136Z,17.97
2022-12-03T06:52:37.824Z,14.77
2022-12-03T06:55:39.496Z,16.20
2022-12-03T06:58:41.186Z,16.77
2022-12-03T07:01:42.992Z,20.93
2022-12-03T07:04:46.385Z,13.53
2022-12-03T07:07:52.307Z,14.60
2022-12-03T07:11:03.404Z,12.97
2022-12-03T07:14:06.973Z,10.97
2022-12-03T07:17:08.768Z,10.67
2022-12-03T07:20:10.837Z,10.70
2022-12-03T07:23:12.527Z,12.97
2022-12-03T07:26:14.223Z,10.87
2022-12-03T07:29:15.988Z,13.23
2022-12-03T07:32:17.820Z,11.67
2022-12-03T07:35:19.686Z,11.33
2022-12-03T07:38:21.432Z,11.83
2022-12-03T07:41:23.171Z,10.47
2022-12-03T07:44:24.935Z,10.03
2022-12-03T07:47:26.610Z,9.27
2022-12-03T07:50:28.341Z,9.80
2022-12-03T07:53:30.160Z,10.20
2022-12-03T07:56:31.844Z,9.37
2022-12-03T07:59:33.614Z,9.70
2022-12-03T08:02:35.414Z,8.60
2022-12-03T08:05:37.242Z,9.70
2022-12-03T08:08:43.961Z,8.10
2022-12-03T08:11:49.438Z,8.37
2022-12-03T08:14:51.458Z,7.50
2022-12-03T08:18:00.940Z,8.83
2022-12-03T08:21:04.044Z,7.17
2022-12-03T08:24:19.574Z,8.83
2022-12-03T08:27:21.236Z,8.83
2022-12-03T08:30:23.411Z,9.50
2022-12-03T08:33:28.654Z,8.73
2022-12-03T08:36:32.935Z,9.40
2022-12-03T08:39:40.336Z,7.47
2022-12-03T08:42:42.057Z,8.67
2022-12-03T08:45:45.573Z,9.00
2022-12-03T08:48:49.453Z,9.33
2022-12-03T08:51:57.241Z,9.53
2022-12-03T08:55:00.287Z,8.67
2022-12-03T08:58:23.941Z,9.87
2022-12-03T09:01:34.458Z,9.20
2022-12-03T09:04:45.465Z,10.33
2022-12-03T09:07:47.481Z,12.53
2022-12-03T09:11:04.303Z,11.50
2022-12-03T09:14:06.109Z,9.77
2022-12-03T09:17:07.880Z,13.10
2022-12-03T09:20:09.935Z,10.93
2022-12-03T09:23:14.240Z,11.33
2022-12-03T09:26:15.949Z,11.10
2022-12-03T09:29:17.664Z,11.47
2022-12-03T09:32:22.296Z,17.17
2022-12-03T09:35:25.910Z,15.70
2022-12-03T09:38:27.580Z,13.93
2022-12-03T09:41:44.642Z,16.50
2022-12-03T09:44:46.432Z,18.50
2022-12-03T09:47:49.304Z,17.97
2022-12-03T09:50:52.021Z,18.17
2022-12-03T09:53:53.724Z,15.40
2022-12-03T09:56:57.146Z,18.73
2022-12-03T09:59:59.314Z,18.07
2022-12-03T10:03:49.838Z,21.40
2022-12-03T10:06:58.372Z,20.47
2022-12-03T10:10:00.204Z,17.53
2022-12-03T10:13:02.233Z,20.17
2022-12-03T10:16:12.092Z,17.90
2022-12-03T10:19:23.307Z,20.50
2022-12-03T10:22:25.451Z,20.30
2022-12-03T10:25:27.124Z,20.60
2022-12-03T10:28:44.012Z,19.87
2022-12-03T10:31:52.818Z,22.40
2022-12-03T10:35:47.393Z,20.03
2022-12-03T10:39:07.950Z,20.23
2022-12-03T10:42:16.404Z,22.73
2022-12-03T10:45:23.491Z,22.93
2022-12-03T10:48:27.355Z,23.57
2022-12-03T10:51:29.040Z,23.50
2022-12-03T10:54:32.635Z,26.13
2022-12-03T10:57:34.304Z,24.30
2022-12-03T11:00:35.923Z,24.93
2022-12-03T11:03:40.958Z,25.70
2022-12-03T11:06:42.652Z,24.17
2022-12-03T11:09:52.614Z,23.07
2022-12-03T11:13:28.338Z,24.93
2022-12-03T11:16:39.155Z,28.00
2022-12-03T11:19:45.652Z,25.63
2022-12-03T11:22:49.096Z,22.87
2022-12-03T11:25:50.893Z,24.83
2022-12-03T11:28:58.305Z,29.20
2022-12-03T11:32:00.008Z,26.27
2022-12-03T11:35:03.718Z,28.73
2022-12-03T11:38:52.159Z,26.43
2022-12-03T11:42:28.386Z,26.00
2022-12-03T11:45:34.239Z,22.57
2022-12-03T11:48:46.928Z,28.13
2022-12-03T11:51:49.559Z,27.30
2022-12-03T11:54:58.276Z,26.03
2022-12-03T11:58:05.150Z,25.13
2022-12-03T12:01:08.318Z,29.47
2022-12-03T12:04:27.624Z,30.47
2022-12-03T12:07:36.751Z,25.93
2022-12-03T12:10:45.177Z,24.90
2022-12-03T12:13:54.543Z,25.90
2022-12-03T12:16:58.405Z,26.33
2022-12-03T12:20:25.180Z,26.60
2022-12-03T12:23:29.014Z,24.97
2022-12-03T12:26:30.983Z,30.37
2022-12-03T12:29:33.098Z,27.17
2022-12-03T12:32:57.905Z,23.93
2022-12-03T12:35:59.534Z,28.33
2022-12-03T12:39:01.202Z,27.70
2022-12-03T12:42:07.763Z,25.87
2022-12-03T12:45:24.863Z,32.07
2022-12-03T12:48:30.033Z,28.93
2022-12-03T12:51:31.838Z,24.10
2022-12-03T12:54:33.563Z,27.00
2022-12-03T12:57:35.248Z,28.10
2022-12-03T13:00:37.297Z,32.47
2022-12-03T13:03:39.693Z,28.03
2022-12-03T13:06:42.063Z,28.77
2022-12-03T13:09:43.768Z,28.13
2022-12-03T13:12:45.420Z,28.43
2022-12-03T13:15:57.200Z,29.37
2022-12-03T13:19:00.574Z,31.20
2022-12-03T13:22:11.070Z,31.53
2022-12-03T13:25:57.310Z,29.83
2022-12-03T13:28:57.284Z,26.63
2022-12-03T13:32:01.477Z,30.43
2022-12-03T13:35:17.102Z,28.97
2022-12-03T13:38:20.308Z,30.43
2022-12-03T13:41:40.498Z,29.03
2022-12-03T13:44:46.144Z,29.50
2022-12-03T13:47:49.679Z,30.00
2022-12-03T13:50:52.754Z,29.77
2022-12-03T13:53:54.980Z,31.83
2022-12-03T13:56:56.572Z,28.47
2022-12-03T13:59:58.201Z,26.00
2022-12-03T14:02:59.798Z,31.27
2022-12-03T14:06:01.426Z,29.30
2022-12-03T14:09:03.290Z,28.57
2022-12-03T14:12:24.589Z,29.47
2022-12-03T14:15:26.380Z,27.87
2022-12-03T14:18:28.391Z,31.50
2022-12-03T14:21:31.158Z,28.60
2022-12-03T14:24:32.858Z,28.60
2022-12-03T14:27:34.515Z,33.60
2022-12-03T14:30:36.587Z,32.27
2022-12-03T14:33:53.504Z,29.43
2022-12-03T14:36:55.149Z,27.27
2022-12-03T14:39:57.188Z,26.23
2022-12-03T14:42:59.135Z,28.63
2022-12-03T14:46:00.893Z,26.17
2022-12-03T14:49:02.604Z,28.43
2022-12-03T14:52:08.493Z,28.77
2022-12-03T14:55:12.940Z,31.93
2022-12-03T14:58:14.635Z,28.10
2022-12-03T15:01:16.440Z,26.33
2022-12-03T15:04:18.269Z,31.00
2022-12-03T15:07:19.881Z,27.70
2022-12-03T15:14:44.227Z,27.17
2022-12-03T15:17:47.170Z,32.60
2022-12-03T15:21:14.757Z,30.90
2022-12-03T15:24:17.004Z,27.87
2022-12-03T15:27:18.659Z,28.37
2022-12-03T15:30:20.653Z,31.40
2022-12-03T15:33:22.279Z,31.70
2022-12-03T15:36:23.928Z,30.83
2022-12-03T15:39:25.617Z,30.50
2022-12-03T15:42:29.634Z,31.00
2022-12-03T15:45:31.369Z,32.33
2022-12-03T15:48:34.139Z,33.80
2022-12-03T15:51:35.841Z,29.73
2022-12-03T15:54:37.663Z,34.23
2022-12-03T15:57:51.635Z,32.73
2022-12-03T16:00:53.300Z,34.00
2022-12-03T16:03:54.993Z,31.97
2022-12-03T16:06:56.641Z,30.10
2022-12-03T16:09:58.788Z,35.93
2022-12-03T16:13:00.421Z,34.00
2022-12-03T16:16:05.438Z,34.07
2022-12-03T16:19:07.112Z,31.70
2022-12-03T16:22:09.078Z,33.03
2022-12-03T16:25:10.689Z,35.47
2022-12-03T16:28:15.534Z,35.67
2022-12-03T16:31:30.011Z,35.77
2022-12-03T16:34:31.703Z,39.10
2022-12-03T16:37:33.363Z,36.53
2022-12-03T16:40:35.038Z,40.57
2022-12-03T16:43:38.706Z,39.40
2022-12-03T16:46:40.378Z,36.40
2022-12-03T16:49:42.044Z,40.17
2022-12-03T16:52:43.724Z,37.70
2022-12-03T16:55:45.464Z,37.30
2022-12-03T16:58:47.132Z,35.47
2022-12-03T17:01:48.889Z,40.13
2022-12-03T17:04:50.672Z,37.70
2022-12-03T17:07:52.410Z,36.20
2022-12-03T17:10:54.313Z,38.33
2022-12-03T17:13:56.006Z,41.20
2022-12-03T17:16:57.765Z,41.00
2022-12-03T17:19:59.422Z,39.23
2022-12-03T17:23:01.392Z,40.00
2022-12-03T17:26:03.043Z,45.03
2022-12-03T17:29:04.794Z,40.30
2022-12-03T17:32:06.565Z,43.03
2022-12-03T17:35:09.336Z,41.03
2022-12-03T17:38:11.134Z,37.87
2022-12-03T17:41:12.798Z,39.93
2022-12-03T17:44:19.438Z,42.07
2022-12-03T17:47:22.738Z,39.30
2022-12-03T17:50:24.420Z,37.80
2022-12-03T17:53:26.266Z,36.67
2022-12-03T17:56:27.980Z,42.33
2022-12-03T17:59:29.780Z,43.20
2022-12-03T18:02:31.482Z,45.23
2022-12-03T18:05:33.174Z,44.30
2022-12-03T18:08:34.835Z,43.03
2022-12-03T18:11:36.529Z,41.93
2022-12-03T18:14:38.198Z,39.93
2022-12-03T18:17:39.966Z,43.70
2022-12-03T18:20:41.711Z,44.40
2022-12-03T18:23:43.336Z,42.80
2022-12-03T18:26:45.016Z,44.57
2022-12-03T18:29:46.626Z,42.40
2022-12-03T18:32:48.279Z,40.80
2022-12-03T18:35:54.245Z,46.17
2022-12-03T18:39:00.536Z,46.77
2022-12-03T18:42:09.125Z,45.43
2022-12-03T18:45:17.296Z,44.27
2022-12-03T18:48:20.006Z,46.47
2022-12-03T18:51:23.852Z,45.17
2022-12-03T18:54:25.517Z,42.90
2022-12-03T18:57:27.138Z,49.77
2022-12-03T19:00:28.961Z,45.63
2022-12-03T19:03:31.408Z,43.07
2022-12-03T19:06:33.099Z,46.87
2022-12-03T19:09:34.876Z,43.10
2022-12-03T19:12:37.400Z,46.00
2022-12-03T19:15:39.529Z,46.10
2022-12-03T19:18:41.205Z,44.93
2022-12-03T19:21:42.869Z,47.73
2022-12-03T19:24:44.646Z,49.23
2022-12-03T19:27:46.292Z,44.43
2022-12-03T19:30:56.728Z,46.37
2022-12-03T19:33:58.510Z,42.57
2022-12-03T19:37:00.342Z,45.90
2022-12-03T19:40:02.117Z,44.27
2022-12-03T19:43:03.791Z,42.13
2022-12-03T19:46:11.077Z,38.97
2022-12-03T19:49:12.809Z,44.93
2022-12-03T19:52:14.697Z,39.87
2022-12-03T19:55:19.385Z,41.50
2022-12-03T19:58:21.727Z,39.93
2022-12-03T20:01:26.693Z,40.30
2022-12-03T20:04:28.557Z,34.10
2022-12-03T20:07:30.281Z,38.77
2022-12-03T20:10:32.827Z,40.80
2022-12-03T20:13:36.523Z,38.73
2022-12-03T20:16:38.494Z,38.67
2022-12-03T20:19:40.273Z,38.03
2022-12-03T20:22:41.956Z,36.53
2022-12-03T20:25:43.773Z,37.13
2022-12-03T20:28:47.924Z,43.30
2022-12-03T20:31:49.723Z,43.77
2022-12-03T20:34:51.428Z,38.70
2022-12-03T20:37:53.079Z,34.67
2022-12-03T20:40:57.449Z,35.87
2022-12-03T20:43:59.165Z,41.00
2022-12-03T20:47:00.790Z,38.67
2022-12-03T20:50:02.459Z,35.80
2022-12-03T20:53:23.802Z,39.00
2022-12-03T20:56:32.724Z,35.90
2022-12-03T20:59:34.489Z,38.83
2022-12-03T21:02:37.502Z,36.27
2022-12-03T21:05:39.178Z,34.63
2022-12-03T21:08:42.566Z,37.33
2022-12-03T21:11:50.402Z,35.53
2022-12-03T21:14:52.061Z,35.97
2022-12-03T21:17:53.903Z,36.80
2022-12-03T21:20:55.578Z,33.93
2022-12-03T21:23:57.651Z,32.70
2022-12-03T21:26:59.428Z,35.77
2022-12-03T21:30:01.163Z,36.33
2022-12-03T21:33:05.066Z,33.70
2022-12-03T21:36:07.785Z,33.13
2022-12-03T21:39:09.571Z,35.10
2022-12-03T21:42:22.126Z,36.57
2022-12-03T21:45:35.463Z,32.73
2022-12-03T21:48:37.137Z,31.83
2022-12-03T21:51:40.967Z,34.13
2022-12-03T21:54:42.723Z,34.73
2022-12-03T21:57:44.438Z,32.20
2022-12-03T22:00:46.116Z,33.50
2022-12-03T22:03:48.416Z,30.00
2022-12-03T22:06:50.068Z,35.90
2022-12-03T22:09:51.986Z,31.97
2022-12-03T22:12:55.939Z,35.17
2022-12-03T22:15:57.730Z,31.47
2022-12-03T22:19:01.858Z,31.77
2022-12-03T22:22:03.516Z,33.40
2022-12-03T22:25:24.391Z,34.73
2022-12-03T22:28:29.092Z,33.23
2022-12-03T22:31:30.831Z,33.87
2022-12-03T22:34:32.652Z,31.93
2022-12-03T22:37:34.460Z,30.63
2022-12-03T22:40:39.482Z,32.80
2022-12-03T22:43:41.241Z,28.10
2022-12-03T22:46:47.496Z,30.67
2022-12-03T22:49:55.787Z,33.93
2022-12-03T22:52:57.703Z,30.67
2022-12-03T22:56:00.076Z,30.30
2022-12-03T22:59:01.774Z,32.60
2022-12-03T23:02:03.511Z,30.03
2022-12-03T23:05:05.680Z,28.63
2022-12-03T23:08:09.747Z,30.00
2022-12-03T23:11:23.517Z,29.63
2022-12-03T23:14:25.165Z,31.47
2022-12-03T23:17:26.853Z,28.73
2022-12-03T23:20:29.007Z,33.27
2022-12-03T23:23:30.669Z,32.50
2022-12-03T23:26:36.017Z,31.90
2022-12-03T23:29:37.647Z,27.87
2022-12-03T23:32:39.344Z,28.97
2022-12-03T23:35:40.980Z,27.80
2022-12-03T23:38:42.676Z,29.70
2022-12-03T23:41:44.353Z,24.97
2022-12-03T23:44:45.967Z,30.27
2022-12-03T23:47:47.589Z,27.47
2022-12-03T23:50:49.287Z,27.33
2022-12-03T23:53:53.012Z,26.60
2022-12-03T23:56:54.840Z,23.47
2022-12-03T23:59:56.873Z,30.57
